Time;durP1;ratioP1;P1;durP2;ratioP2;P2;SDS_P1;SDS_P2;PMS_P1;PMS_P2;Temp;Humidity;BMP_temperature;BMP_pressure;BME280_temperature;BME280_humidity;BME280_pressure;Samples;Min_cycle;Max_cycle;Signal;HPM_P1;HPM_P2
2021/06/21 00:01:26;;;;;;;9.00;4.90;;;;;;;20.05;73.55;98476.00;5010664;28;20068;-73
2021/06/21 00:03:51;;;;;;;8.07;5.78;;;;;;;20.05;73.85;98486.69;5011471;28;20493;-74
2021/06/21 00:06:17;;;;;;;4.93;4.35;;;;;;;20.08;73.89;98481.00;5010093;28;20068;-74
2021/06/21 00:08:42;;;;;;;9.23;5.40;;;;;;;20.06;72.78;98465.13;5009991;28;20034;-74
2021/06/21 00:11:07;;;;;;;6.15;4.80;;;;;;;20.09;73.51;98466.63;5011554;28;20057;-73
2021/06/21 00:13:33;;;;;;;6.93;5.95;;;;;;;20.05;71.97;98463.44;5013695;28;20033;-74
2021/06/21 00:15:59;;;;;;;7.40;5.55;;;;;;;19.93;72.07;98465.63;5013322;28;20520;-73
2021/06/21 00:18:24;;;;;;;8.68;6.10;;;;;;;19.90;71.91;98463.28;5010906;28;20038;-73
2021/06/21 00:20:51;;;;;;;9.20;6.53;;;;;;;19.87;71.08;98470.81;5011584;28;20038;-74
2021/06/21 00:23:17;;;;;;;10.38;7.65;;;;;;;19.84;71.84;98466.66;5003790;28;20037;-73
2021/06/21 00:25:43;;;;;;;11.35;6.85;;;;;;;19.78;71.54;98451.25;5018932;28;20030;-74
2021/06/21 00:28:09;;;;;;;12.02;6.15;;;;;;;19.78;72.55;98453.94;5009710;28;20034;-76
2021/06/21 00:30:34;;;;;;;7.80;6.50;;;;;;;19.78;71.44;98458.44;5010606;28;20049;-76
2021/06/21 00:33:00;;;;;;;8.35;5.88;;;;;;;19.70;71.70;98462.78;5010388;28;20034;-76
2021/06/21 00:35:25;;;;;;;10.98;7.22;;;;;;;19.72;73.67;98470.66;5010165;28;20084;-73
2021/06/21 00:37:50;;;;;;;11.93;7.75;;;;;;;19.67;71.81;98470.28;5010045;28;20517;-75
2021/06/21 00:40:17;;;;;;;7.82;6.55;;;;;;;19.63;72.54;98472.44;5011122;28;20129;-73
2021/06/21 00:42:46;;;;;;;7.78;6.57;;;;;;;19.58;71.90;98471.28;4996135;28;20507;-73
2021/06/21 00:45:13;;;;;;;11.80;7.13;;;;;;;19.59;73.39;98470.25;5010449;28;20444;-73
2021/06/21 00:47:39;;;;;;;9.20;5.68;;;;;;;19.59;72.63;98478.28;5010447;28;20431;-74
2021/06/21 00:50:05;;;;;;;8.30;6.50;;;;;;;19.58;72.30;98482.78;5011568;28;20045;-74
2021/06/21 00:52:30;;;;;;;9.77;6.43;;;;;;;19.59;73.44;98486.31;5010489;28;20049;-73
2021/06/21 00:55:02;;;;;;;9.30;6.03;;;;;;;19.56;72.71;98484.78;5009234;28;20117;-73
2021/06/21 00:57:29;;;;;;;8.77;7.53;;;;;;;19.52;73.40;98484.31;5009156;28;20443;-74
2021/06/21 00:59:58;;;;;;;8.90;6.10;;;;;;;19.49;73.10;98494.47;5010488;28;20496;-73
2021/06/21 01:02:25;;;;;;;12.95;8.20;;;;;;;19.46;73.67;98489.47;4987238;28;20033;-73
2021/06/21 01:04:51;;;;;;;10.98;8.85;;;;;;;19.36;74.76;98488.78;5009673;28;20045;-73
2021/06/21 01:07:17;;;;;;;7.93;6.20;;;;;;;19.32;75.42;98488.28;5009615;28;20034;-73
2021/06/21 01:09:42;;;;;;;11.88;6.40;;;;;;;19.33;75.38;98484.59;5010237;28;20049;-73
2021/06/21 01:12:13;;;;;;;9.88;6.38;;;;;;;19.32;73.75;98488.28;5009915;28;20045;-73
2021/06/21 01:14:44;;;;;;;10.18;8.77;;;;;;;19.33;74.51;98489.94;5009950;28;20034;-73
2021/06/21 01:17:18;;;;;;;7.55;6.80;;;;;;;19.25;74.57;98493.44;5009445;28;20038;-73
2021/06/21 01:19:53;;;;;;;10.82;7.78;;;;;;;19.21;75.54;98499.25;5009537;28;20034;-74
2021/06/21 01:22:52;;;;;;;9.68;7.57;;;;;;;19.16;76.43;98505.06;5010804;28;20064;-72
2021/06/21 01:25:30;;;;;;;12.07;10.55;;;;;;;19.03;78.01;98496.69;4999604;28;20034;-74
2021/06/21 01:28:10;;;;;;;9.20;8.20;;;;;;;18.90;77.65;98485.59;5009189;28;20041;-71
2021/06/21 01:31:01;;;;;;;13.57;12.23;;;;;;;18.75;78.90;98485.34;5008984;28;20042;-75
2021/06/21 01:33:26;;;;;;;11.82;8.60;;;;;;;18.63;78.76;98474.09;5005018;28;20484;-72
2021/06/21 01:35:58;;;;;;;8.82;7.50;;;;;;;18.59;79.07;98468.25;5010164;28;20041;-72
2021/06/21 01:38:28;;;;;;;9.90;7.22;;;;;;;18.58;79.76;98465.72;4997537;28;20030;-75
2021/06/21 01:40:56;;;;;;;18.48;13.93;;;;;;;18.59;80.65;98462.09;5012073;28;20041;-72
2021/06/21 01:43:27;;;;;;;14.95;13.45;;;;;;;18.56;80.16;98460.56;5009652;28;20142;-72
2021/06/21 01:45:52;;;;;;;12.50;10.05;;;;;;;18.56;80.29;98455.22;4997545;28;20096;-72
2021/06/21 01:48:22;;;;;;;13.23;11.60;;;;;;;18.58;79.56;98447.91;5005497;28;20086;-76
2021/06/21 01:50:50;;;;;;;12.32;11.13;;;;;;;18.59;79.15;98448.75;5001851;28;20092;-76
2021/06/21 01:53:20;;;;;;;20.42;17.73;;;;;;;18.58;80.16;98447.91;5029275;28;20033;-75
2021/06/21 01:56:07;;;;;;;13.13;11.75;;;;;;;18.62;80.62;98441.22;5032800;28;20045;-75
2021/06/21 01:58:36;;;;;;;26.05;16.10;;;;;;;18.64;81.66;98430.41;5016444;28;20501;-72
2021/06/21 02:01:04;;;;;;;19.67;17.77;;;;;;;18.63;81.09;98421.56;5029177;28;20400;-72
2021/06/21 02:03:31;;;;;;;18.88;16.77;;;;;;;18.59;80.48;98422.03;5029240;28;20121;-71
2021/06/21 02:05:57;;;;;;;16.73;14.98;;;;;;;18.56;80.46;98435.72;5029017;28;20113;-71
2021/06/21 02:08:26;;;;;;;15.45;13.85;;;;;;;18.59;80.32;98432.72;5028819;28;20042;-72
2021/06/21 02:10:52;;;;;;;15.38;13.07;;;;;;;18.58;80.71;98428.38;5036086;28;20044;-74
2021/06/21 02:13:21;;;;;;;15.48;13.93;;;;;;;18.62;81.08;98427.06;5038507;28;20037;-74
2021/06/21 02:15:48;;;;;;;20.42;17.65;;;;;;;18.62;81.30;98424.38;5037321;28;20103;-75
2021/06/21 02:18:16;;;;;;;21.55;19.42;;;;;;;18.63;81.38;98434.91;5033748;28;20041;-73
2021/06/21 02:20:42;;;;;;;16.80;14.88;;;;;;;18.59;80.94;98436.22;5033246;28;20127;-75
2021/06/21 02:23:09;;;;;;;15.63;14.02;;;;;;;18.56;81.39;98439.22;5035433;28;20030;-72
2021/06/21 02:25:35;;;;;;;17.20;14.85;;;;;;;18.52;81.36;98435.19;5033720;28;20508;-75
2021/06/21 02:28:00;;;;;;;15.40;13.90;;;;;;;18.52;80.99;98432.50;5032923;28;20091;-73
2021/06/21 02:30:27;;;;;;;19.25;17.17;;;;;;;18.56;81.35;98420.53;5032455;28;20120;-74
2021/06/21 02:32:53;;;;;;;23.98;21.40;;;;;;;18.58;81.39;98426.56;5033018;28;20484;-74
2021/06/21 02:35:18;;;;;;;13.00;11.65;;;;;;;18.60;81.32;98426.38;5017314;28;20045;-75
2021/06/21 02:37:44;;;;;;;23.42;20.92;;;;;;;18.62;81.69;98417.22;5011046;28;20045;-74
2021/06/21 02:40:13;;;;;;;25.85;23.25;;;;;;;18.63;81.75;98397.53;5030099;28;20064;-73
2021/06/21 02:42:39;;;;;;;30.02;26.85;;;;;;;18.66;82.33;98399.88;5032572;28;20026;-72
2021/06/21 02:45:05;;;;;;;22.65;20.20;;;;;;;18.71;82.58;98404.75;5031962;28;20033;-73
2021/06/21 02:47:31;;;;;;;24.08;20.90;;;;;;;18.74;82.27;98400.91;5030342;28;20025;-72
2021/06/21 02:49:57;;;;;;;27.30;24.52;;;;;;;18.75;81.91;98402.56;5032384;28;20037;-72
2021/06/21 02:52:25;;;;;;;20.13;18.23;;;;;;;18.77;81.69;98400.63;5033293;28;20056;-73
2021/06/21 02:55:09;;;;;;;21.88;19.73;;;;;;;18.80;81.94;98405.63;5032463;28;20037;-74
2021/06/21 02:58:01;;;;;;;24.48;21.88;;;;;;;18.85;82.22;98400.63;5031922;28;20036;-74
2021/06/21 03:00:28;;;;;;;37.03;30.95;;;;;;;18.84;82.58;98404.31;5017009;28;20034;-73
2021/06/21 03:02:56;;;;;;;25.95;23.50;;;;;;;18.83;81.60;98403.47;5031085;28;20033;-72
2021/06/21 03:05:23;;;;;;;23.63;21.33;;;;;;;18.84;81.27;98405.16;5033178;28;20041;-72
2021/06/21 03:07:50;;;;;;;30.60;27.63;;;;;;;18.85;81.33;98405.97;5032435;28;20033;-75
2021/06/21 03:10:17;;;;;;;24.08;21.73;;;;;;;18.88;80.55;98411.00;5033438;28;20026;-75
2021/06/21 03:12:45;;;;;;;27.02;24.42;;;;;;;18.88;80.33;98414.50;5033360;28;20029;-74
2021/06/21 03:15:13;;;;;;;24.90;22.42;;;;;;;18.92;80.76;98415.00;5032426;28;20187;-74
2021/06/21 03:17:39;;;;;;;24.52;22.23;;;;;;;18.87;80.92;98415.50;5032260;28;20086;-74
2021/06/21 03:20:05;;;;;;;31.50;28.33;;;;;;;18.88;82.34;98416.34;5031989;28;20033;-73
2021/06/21 03:22:31;;;;;;;34.33;30.92;;;;;;;18.87;82.75;98423.50;5033330;28;20042;-75
2021/06/21 03:24:57;;;;;;;30.70;27.52;;;;;;;18.87;82.58;98428.00;5031388;28;20507;-75
2021/06/21 03:27:29;;;;;;;31.58;28.45;;;;;;;18.91;81.90;98420.53;5033005;28;20061;-74
2021/06/21 03:29:56;;;;;;;20.52;18.63;;;;;;;18.92;82.01;98420.34;5020402;28;20425;-74
2021/06/21 03:32:31;;;;;;;21.35;19.25;;;;;;;18.96;81.90;98423.56;5036546;28;20033;-74
2021/06/21 03:35:00;;;;;;;22.75;20.58;;;;;;;18.97;81.70;98418.03;5017731;28;20093;-72
2021/06/21 03:37:26;;;;;;;28.67;25.80;;;;;;;18.93;81.68;98432.72;5030909;28;20477;-74
2021/06/21 03:39:52;;;;;;;31.45;28.25;;;;;;;18.92;81.88;98425.69;5016240;28;20038;-73
2021/06/21 03:42:17;;;;;;;31.85;28.52;;;;;;;18.88;82.08;98422.53;5011807;28;20521;-72
2021/06/21 03:44:43;;;;;;;33.38;30.00;;;;;;;18.87;81.52;98414.66;5014653;28;20037;-72
2021/06/21 03:47:11;;;;;;;31.00;27.80;;;;;;;18.90;81.31;98411.66;5014466;28;20034;-74
2021/06/21 03:49:38;;;;;;;44.05;35.58;;;;;;;18.90;81.90;98413.50;5024191;28;20068;-74
2021/06/21 03:52:04;;;;;;;30.23;27.17;;;;;;;18.83;81.67;98403.47;5021394;28;20154;-73
2021/06/21 03:54:29;;;;;;;39.40;34.40;;;;;;;18.82;81.37;98406.31;5021649;28;20038;-75
2021/06/21 03:56:55;;;;;;;39.20;34.63;;;;;;;18.84;81.30;98399.81;5021707;28;20537;-74
2021/06/21 03:59:20;;;;;;;29.63;26.63;;;;;;;18.87;81.23;98410.16;5021323;28;20052;-72
2021/06/21 04:01:48;;;;;;;31.58;28.30;;;;;;;18.90;81.28;98413.50;5024132;28;20088;-74
2021/06/21 04:04:13;;;;;;;32.97;28.08;;;;;;;18.88;81.62;98414.50;5016144;28;20113;-74
2021/06/21 04:06:38;;;;;;;31.30;28.00;;;;;;;18.87;81.47;98415.50;5009854;28;20128;-72
2021/06/21 04:09:04;;;;;;;24.23;21.77;;;;;;;18.87;81.19;98407.47;4993439;28;20117;-73
2021/06/21 04:11:30;;;;;;;25.40;22.80;;;;;;;18.94;81.46;98405.00;5009664;28;20037;-73
2021/06/21 04:13:56;;;;;;;35.22;31.48;;;;;;;18.97;81.04;98404.66;5010923;28;20507;-72
2021/06/21 04:16:22;;;;;;;36.75;31.83;;;;;;;18.98;80.86;98411.72;5011361;28;20038;-73
2021/06/21 04:18:47;;;;;;;33.40;29.88;;;;;;;18.92;81.31;98401.66;5010668;28;20042;-72
2021/06/21 04:21:12;;;;;;;25.25;22.52;;;;;;;18.97;81.84;98407.34;5009388;28;20394;-73
2021/06/21 04:23:38;;;;;;;31.63;28.42;;;;;;;19.01;81.69;98399.84;5011032;28;20449;-73
2021/06/21 04:26:03;;;;;;;31.60;28.30;;;;;;;18.99;80.90;98412.53;5011292;28;20068;-73
2021/06/21 04:28:28;;;;;;;34.47;30.92;;;;;;;18.99;81.60;98415.22;5010513;28;20037;-73
2021/06/21 04:30:54;;;;;;;30.17;27.08;;;;;;;18.99;80.65;98408.03;5010948;28;20030;-73
2021/06/21 04:33:19;;;;;;;31.42;28.02;;;;;;;19.00;80.82;98414.19;5010926;28;20501;-73
2021/06/21 04:35:45;;;;;;;33.17;29.73;;;;;;;19.02;80.89;98405.03;5009444;28;20457;-72
2021/06/21 04:38:10;;;;;;;36.30;32.35;;;;;;;19.04;80.73;98404.88;5010262;28;20068;-73
2021/06/21 04:40:37;;;;;;;37.08;33.28;;;;;;;19.00;80.89;98412.38;5009473;28;20034;-72
2021/06/21 04:43:03;;;;;;;30.90;27.60;;;;;;;19.00;81.66;98411.53;5010003;28;20401;-72
2021/06/21 04:45:29;;;;;;;30.58;27.45;;;;;;;19.03;81.71;98414.72;5009089;28;20568;-73
2021/06/21 04:47:55;;;;;;;30.08;26.98;;;;;;;19.02;81.55;98413.03;5010177;28;20046;-73
2021/06/21 04:50:20;;;;;;;31.52;28.20;;;;;;;19.02;81.02;98409.53;5010641;28;20141;-72
2021/06/21 04:52:48;;;;;;;37.53;33.65;;;;;;;19.02;81.68;98405.03;5010848;28;20057;-72
2021/06/21 04:55:16;;;;;;;39.55;35.28;;;;;;;19.04;82.42;98411.03;5010808;28;20113;-72
2021/06/21 04:57:42;;;;;;;32.20;28.85;;;;;;;19.03;82.71;98404.03;5008766;28;20536;-73
2021/06/21 05:00:17;;;;;;;28.80;25.67;;;;;;;18.99;81.77;98410.69;5010261;28;20070;-73
2021/06/21 05:02:42;;;;;;;32.00;27.33;;;;;;;18.98;82.24;98401.03;5008922;28;20061;-76
2021/06/21 05:05:09;;;;;;;31.83;28.13;;;;;;;19.01;82.55;98411.38;5010354;28;20109;-75
2021/06/21 05:07:36;;;;;;;18.48;16.73;;;;;;;18.96;81.62;98408.34;5008178;28;20034;-76
2021/06/21 05:10:04;;;;;;;12.73;11.43;;;;;;;18.85;81.88;98403.31;5010188;28;20038;-75
2021/06/21 05:12:29;;;;;;;11.43;10.43;;;;;;;18.79;81.66;98403.97;5010407;28;20034;-75
2021/06/21 05:14:54;;;;;;;10.88;9.88;;;;;;;18.79;81.54;98402.13;5010294;28;20041;-75
2021/06/21 05:17:20;;;;;;;9.52;8.70;;;;;;;18.78;81.39;98407.63;5008640;28;20064;-75
2021/06/21 05:19:46;;;;;;;6.38;5.80;;;;;;;18.77;81.58;98408.63;5009589;28;20111;-75
2021/06/21 05:22:11;;;;;;;10.35;6.90;;;;;;;18.77;80.89;98413.97;5010488;28;20033;-76
2021/06/21 05:24:37;;;;;;;5.65;5.15;;;;;;;18.75;81.15;98410.59;5013759;28;20034;-75
2021/06/21 05:27:02;;;;;;;6.35;5.20;;;;;;;18.72;81.27;98419.75;5009554;28;20030;-74
2021/06/21 05:29:29;;;;;;;7.25;5.00;;;;;;;18.69;81.12;98411.25;5009602;28;20441;-75
2021/06/21 05:31:54;;;;;;;4.72;4.28;;;;;;;18.62;80.65;98414.53;5010785;28;20030;-74
2021/06/21 05:34:19;;;;;;;5.45;4.30;;;;;;;18.55;80.39;98421.50;5008670;28;20037;-74
2021/06/21 05:36:45;;;;;;;5.40;3.90;;;;;;;18.38;80.83;98425.09;5010050;28;20030;-76
2021/06/21 05:39:10;;;;;;;2.60;2.30;;;;;;;18.27;80.70;98431.56;5004993;28;20046;-74
2021/06/21 05:41:36;;;;;;;4.38;3.58;;;;;;;18.24;80.62;98431.88;5010184;28;20100;-72
2021/06/21 05:44:02;;;;;;;5.97;5.38;;;;;;;18.20;81.36;98433.19;5008473;28;20509;-73
2021/06/21 05:46:27;;;;;;;4.43;3.60;;;;;;;18.10;80.45;98427.94;4993769;28;20137;-73
2021/06/21 05:48:52;;;;;;;5.55;4.43;;;;;;;18.03;82.25;98434.91;4995950;28;20407;-72
2021/06/21 05:51:18;;;;;;;4.75;3.60;;;;;;;18.01;81.70;98439.53;4995049;28;20109;-73
2021/06/21 05:53:43;;;;;;;3.45;2.97;;;;;;;17.97;81.03;98449.69;4995140;28;20065;-73
2021/06/21 05:56:08;;;;;;;6.03;5.43;;;;;;;17.92;81.41;98444.00;4993198;28;20073;-73
2021/06/21 05:58:34;;;;;;;5.10;4.50;;;;;;;17.87;81.70;98454.28;4994391;28;20058;-76
2021/06/21 06:00:59;;;;;;;4.95;4.45;;;;;;;17.86;81.64;98457.94;4994011;28;20030;-73
2021/06/21 06:03:24;;;;;;;5.53;4.95;;;;;;;17.87;81.63;98459.63;4994048;28;20061;-72
2021/06/21 06:05:50;;;;;;;6.40;4.10;;;;;;;17.88;82.04;98463.13;4993133;28;20030;-72
2021/06/21 06:08:16;;;;;;;4.72;4.25;;;;;;;17.89;80.95;98467.44;4992234;28;20042;-73
2021/06/21 06:10:42;;;;;;;4.95;4.45;;;;;;;17.91;81.67;98468.13;4993737;28;20042;-73
2021/06/21 06:13:08;;;;;;;7.88;5.13;;;;;;;17.87;81.56;98475.63;4991756;28;20065;-74
2021/06/21 06:15:34;;;;;;;6.30;5.55;;;;;;;17.78;81.89;98472.00;4994270;28;20050;-75
2021/06/21 06:17:59;;;;;;;6.18;5.57;;;;;;;17.69;81.25;98478.25;4993313;28;20050;-77
2021/06/21 06:20:25;;;;;;;7.78;4.90;;;;;;;17.69;81.43;98488.06;4995709;28;20461;-72
2021/06/21 06:22:50;;;;;;;5.60;5.10;;;;;;;17.61;80.60;98488.84;4980216;28;20034;-73
2021/06/21 06:25:16;;;;;;;6.72;6.13;;;;;;;17.57;80.49;98500.78;4991953;28;20117;-74
2021/06/21 06:27:41;;;;;;;7.95;7.15;;;;;;;17.60;81.99;98506.66;4993619;28;20044;-72
2021/06/21 06:30:08;;;;;;;9.43;7.18;;;;;;;17.62;81.64;98497.66;4991975;28;20069;-71
2021/06/21 06:32:35;;;;;;;6.78;6.15;;;;;;;17.59;80.18;98504.13;4991326;28;20129;-71
2021/06/21 06:35:02;;;;;;;7.20;6.50;;;;;;;17.59;81.24;98509.47;4993441;28;20065;-71
2021/06/21 06:37:28;;;;;;;9.40;4.50;;;;;;;17.59;80.47;98504.97;4992717;28;20034;-74
2021/06/21 06:39:53;;;;;;;8.73;5.63;;;;;;;17.57;80.07;98511.44;4975989;28;20034;-72
2021/06/21 06:42:18;;;;;;;5.28;4.78;;;;;;;17.55;79.67;98511.63;4992426;28;20088;-73
2021/06/21 06:44:44;;;;;;;6.80;5.40;;;;;;;17.57;80.36;98522.09;4993069;28;20046;-72
2021/06/21 06:47:09;;;;;;;6.40;5.22;;;;;;;17.51;80.44;98530.72;4991563;28;20064;-74
2021/06/21 06:49:35;;;;;;;6.95;5.72;;;;;;;17.44;80.73;98527.81;4993201;28;20038;-74
2021/06/21 06:52:00;;;;;;;5.30;4.60;;;;;;;17.41;80.12;98537.94;4992958;28;20046;-75
2021/06/21 06:54:34;;;;;;;4.32;3.80;;;;;;;17.38;80.44;98544.41;4991002;28;20035;-74
2021/06/21 06:57:00;;;;;;;3.75;3.42;;;;;;;17.37;79.64;98538.22;4992984;28;20034;-74
2021/06/21 06:59:30;;;;;;;3.95;3.20;;;;;;;17.34;79.48;98541.19;4993380;28;20073;-73
2021/06/21 07:01:57;;;;;;;6.25;3.45;;;;;;;17.30;80.60;98545.16;4976291;28;20093;-73
2021/06/21 07:04:23;;;;;;;4.95;4.22;;;;;;;17.25;80.78;98554.56;4993074;28;20130;-73
2021/06/21 07:06:48;;;;;;;5.10;4.57;;;;;;;17.23;80.60;98568.03;4990764;28;20037;-72
2021/06/21 07:09:14;;;;;;;5.10;3.65;;;;;;;17.19;80.52;98571.13;4992452;28;20034;-73
2021/06/21 07:11:40;;;;;;;3.50;2.92;;;;;;;17.20;80.62;98570.16;4991336;28;20038;-74
2021/06/21 07:14:06;;;;;;;3.15;2.85;;;;;;;17.13;80.18;98576.06;4992729;28;20030;-72
2021/06/21 07:16:33;;;;;;;3.38;2.70;;;;;;;17.11;79.96;98579.88;4992664;28;20152;-73
2021/06/21 07:18:58;;;;;;;3.30;3.00;;;;;;;17.08;79.41;98578.34;4992285;28;20031;-72
2021/06/21 07:21:24;;;;;;;4.43;3.30;;;;;;;17.06;79.57;98584.81;4991550;28;20528;-70
2021/06/21 07:23:49;;;;;;;9.15;5.75;;;;;;;16.98;79.74;98587.34;4992059;28;20085;-68
2021/06/21 07:26:15;;;;;;;6.03;5.32;;;;;;;16.97;79.88;98589.16;4992156;28;20026;-69
2021/06/21 07:28:40;;;;;;;4.95;4.45;;;;;;;16.89;80.48;98595.22;4992122;28;20520;-69
2021/06/21 07:31:06;;;;;;;6.18;5.30;;;;;;;16.86;80.72;98587.53;4992513;28;20034;-69
2021/06/21 07:33:31;;;;;;;6.10;4.85;;;;;;;16.85;80.65;98588.50;4992756;28;20049;-71
2021/06/21 07:35:58;;;;;;;4.90;3.72;;;;;;;16.81;81.03;98594.25;4995705;28;20563;-70
2021/06/21 07:38:23;;;;;;;4.35;3.95;;;;;;;16.84;81.36;98605.47;4995994;28;20042;-70
2021/06/21 07:40:49;;;;;;;6.28;3.85;;;;;;;16.80;80.48;98598.75;4994585;28;20173;-70
2021/06/21 07:43:15;;;;;;;6.50;2.60;;;;;;;16.85;80.72;98608.97;4992350;28;20026;-69
2021/06/21 07:45:42;;;;;;;2.58;1.92;;;;;;;16.98;80.56;98616.63;4994564;28;20030;-47
2021/06/21 07:48:08;;;;;;;3.35;2.20;;;;;;;17.12;78.63;98611.66;4991692;28;20046;-46
2021/06/21 07:50:33;;;;;;;3.70;2.70;;;;;;;17.18;78.58;98626.25;4990857;28;20034;-49
2021/06/21 07:53:01;;;;;;;3.08;1.95;;;;;;;17.23;78.42;98623.97;4988932;28;20041;-47
2021/06/21 07:55:27;;;;;;;3.10;2.15;;;;;;;17.21;78.70;98627.78;5005501;28;20686;-48
2021/06/21 07:57:54;;;;;;;2.25;1.77;;;;;;;17.19;78.92;98640.38;5004810;28;20041;-47
2021/06/21 08:00:23;;;;;;;4.95;1.50;;;;;;;17.27;78.66;98641.31;4987124;28;20125;-51
2021/06/21 08:02:49;;;;;;;2.50;1.20;;;;;;;17.42;77.30;98655.00;4986666;28;20066;-48
2021/06/21 08:05:14;;;;;;;1.52;1.30;;;;;;;17.51;76.82;98653.28;4987873;28;20061;-50
2021/06/21 08:07:41;;;;;;;1.73;1.45;;;;;;;17.56;77.50;98659.00;5019770;28;20049;-50
2021/06/21 08:10:07;;;;;;;1.75;1.40;;;;;;;17.65;76.30;98652.81;5020914;28;20034;-46
2021/06/21 08:12:32;;;;;;;1.35;1.25;;;;;;;17.73;75.31;98666.22;5005834;28;20083;-45
2021/06/21 08:14:58;;;;;;;1.45;0.98;;;;;;;17.76;74.44;98673.09;5005498;28;20073;-49
2021/06/21 08:17:23;;;;;;;2.00;1.30;;;;;;;17.81;74.79;98679.66;4999310;28;20125;-48
2021/06/21 08:19:50;;;;;;;2.08;1.38;;;;;;;17.77;75.31;98683.59;4985490;28;20041;-52
2021/06/21 08:22:21;;;;;;;2.13;1.30;;;;;;;17.72;75.21;98685.00;4985795;28;20473;-49
2021/06/21 08:24:51;;;;;;;4.13;1.23;;;;;;;17.73;75.44;98694.72;4985776;28;20494;-51
2021/06/21 08:27:17;;;;;;;2.03;1.10;;;;;;;17.74;74.52;98694.53;4968232;28;20055;-50
2021/06/21 08:29:43;;;;;;;2.25;1.80;;;;;;;17.69;73.97;98701.31;5000633;28;20034;-52
2021/06/21 08:32:08;;;;;;;2.58;1.60;;;;;;;17.78;73.92;98693.28;5024783;28;20140;-53
2021/06/21 08:34:34;;;;;;;1.58;1.30;;;;;;;17.79;74.84;98694.97;5024606;28;20033;-51
2021/06/21 08:36:59;;;;;;;4.40;1.70;;;;;;;17.91;73.42;98700.13;5024453;28;20413;-55
2021/06/21 08:39:25;;;;;;;6.28;1.83;;;;;;;18.01;74.68;98696.38;5023174;28;20057;-53
2021/06/21 08:41:50;;;;;;;1.67;1.50;;;;;;;18.15;73.21;98703.06;5024789;28;20492;-51
2021/06/21 08:44:16;;;;;;;2.00;1.33;;;;;;;18.15;72.60;98697.72;5024853;28;20105;-50
2021/06/21 08:46:42;;;;;;;1.42;1.30;;;;;;;18.23;73.16;98694.28;5019708;28;20065;-51
2021/06/21 08:49:09;;;;;;;2.00;1.60;;;;;;;18.25;72.04;98692.31;5004692;28;20040;-50
2021/06/21 08:51:36;;;;;;;2.22;1.55;;;;;;;18.48;71.59;98682.03;5004190;28;20116;-75
2021/06/21 08:54:02;;;;;;;1.30;1.20;;;;;;;18.49;71.71;98686.38;5006909;28;20413;-74
2021/06/21 08:56:28;;;;;;;3.38;1.67;;;;;;;18.46;72.52;98692.03;5004492;28;20524;-75
2021/06/21 08:58:53;;;;;;;19.85;2.60;;;;;;;18.32;72.30;98697.91;5004360;28;20038;-74
2021/06/21 09:01:19;;;;;;;7.70;2.35;;;;;;;18.45;71.52;98701.03;4997268;28;20121;-73
2021/06/21 09:03:45;;;;;;;8.25;2.58;;;;;;;18.39;71.70;98697.13;5002843;28;20034;-72
2021/06/21 09:06:23;;;;;;;5.90;2.10;;;;;;;18.39;72.16;98699.81;5004641;28;20037;-74
2021/06/21 09:08:58;;;;;;;2.00;1.60;;;;;;;18.24;72.70;98704.00;5005033;28;20057;-73
2021/06/21 09:11:45;;;;;;;3.10;2.60;;;;;;;18.25;71.99;98703.00;5006002;28;20083;-73
2021/06/21 09:14:26;;;;;;;3.20;1.50;;;;;;;18.36;71.42;98708.13;5003750;28;20117;-74
2021/06/21 09:16:52;;;;;;;3.28;1.98;;;;;;;18.33;71.96;98705.72;5004462;28;20034;-74
2021/06/21 09:19:18;;;;;;;2.67;1.50;;;;;;;18.35;71.79;98706.44;5004783;28;20042;-74
2021/06/21 09:21:44;;;;;;;4.30;2.00;;;;;;;18.46;71.37;98716.06;5004659;28;20069;-74
2021/06/21 09:24:25;;;;;;;1.63;1.48;;;;;;;18.50;71.53;98724.59;5002972;28;20056;-74
2021/06/21 09:26:53;;;;;;;4.18;2.10;;;;;;;18.56;68.78;98735.50;5004185;28;20052;-73
2021/06/21 09:29:41;;;;;;;1.88;1.55;;;;;;;18.59;68.18;98737.03;5004280;28;20145;-74
2021/06/21 09:32:07;;;;;;;5.43;2.17;;;;;;;18.47;68.64;98740.91;4981632;28;20041;-73
2021/06/21 09:34:33;;;;;;;2.97;1.65;;;;;;;18.37;69.84;98749.81;4989322;28;20429;-73
2021/06/21 09:37:08;;;;;;;4.43;1.73;;;;;;;18.22;70.50;98764.66;4984528;28;20037;-73
2021/06/21 09:39:39;;;;;;;5.50;1.80;;;;;;;18.13;71.11;98768.22;4984998;28;20042;-74
2021/06/21 09:42:09;;;;;;;2.35;1.83;;;;;;;18.07;70.29;98764.31;4986257;28;20038;-74
2021/06/21 09:44:47;;;;;;;2.80;1.73;;;;;;;18.12;70.44;98772.72;4985354;28;20405;-73
2021/06/21 09:47:17;;;;;;;2.30;1.80;;;;;;;18.14;69.21;98770.75;4993715;28;20030;-73
2021/06/21 09:50:07;;;;;;;2.03;1.80;;;;;;;18.15;69.63;98769.75;5002532;28;20042;-75
2021/06/21 09:52:37;;;;;;;2.50;2.30;;;;;;;18.26;69.54;98776.69;4991952;28;20038;-75
2021/06/21 09:55:14;;;;;;;3.13;2.40;;;;;;;18.30;69.46;98774.59;5004376;28;20040;-74
2021/06/21 09:57:40;;;;;;;2.85;2.40;;;;;;;18.30;70.67;98794.09;5008468;28;20088;-74
2021/06/21 10:00:11;;;;;;;6.05;2.83;;;;;;;18.35;69.59;98801.66;5007570;28;20113;-71
2021/06/21 10:02:38;;;;;;;3.22;2.40;;;;;;;18.36;70.47;98800.66;5010477;28;20034;-75
2021/06/21 10:05:06;;;;;;;3.58;2.83;;;;;;;18.28;69.07;98816.56;5004998;28;20057;-74
2021/06/21 10:07:36;;;;;;;4.03;3.05;;;;;;;18.27;68.77;98814.91;5004794;28;20103;-75
2021/06/21 10:10:15;;;;;;;4.95;2.95;;;;;;;18.22;71.13;98818.84;5003267;28;20049;-73
2021/06/21 10:12:41;;;;;;;3.42;2.88;;;;;;;18.14;70.23;98817.91;5004035;28;20026;-74
2021/06/21 10:15:08;;;;;;;3.30;2.75;;;;;;;18.12;71.27;98830.56;5004933;28;20108;-73
2021/06/21 10:17:34;;;;;;;3.15;2.55;;;;;;;18.15;70.88;98835.59;4990760;28;20088;-74
2021/06/21 10:20:00;;;;;;;3.97;2.60;;;;;;;18.29;70.09;98842.28;5006068;28;20037;-73
2021/06/21 10:22:27;;;;;;;3.47;2.90;;;;;;;18.34;69.34;98848.84;5021756;28;20038;-72
2021/06/21 10:24:57;;;;;;;5.05;2.55;;;;;;;18.42;68.91;98845.44;5005718;28;20038;-74
2021/06/21 10:27:25;;;;;;;3.08;2.65;;;;;;;18.51;68.55;98851.69;5005031;28;20048;-73
2021/06/21 10:29:51;;;;;;;3.05;2.50;;;;;;;18.45;68.10;98859.31;5004902;28;20081;-75
2021/06/21 10:32:17;;;;;;;3.60;2.85;;;;;;;18.46;68.84;98854.84;5006975;28;20045;-73
2021/06/21 10:34:46;;;;;;;3.20;2.90;;;;;;;18.52;68.80;98870.25;4985658;28;20038;-75
2021/06/21 10:37:14;;;;;;;3.60;3.17;;;;;;;18.34;68.38;98870.19;4988445;28;20510;-74
2021/06/21 10:39:46;;;;;;;3.88;3.45;;;;;;;18.36;69.57;98875.38;4994911;28;20041;-75
2021/06/21 10:42:20;;;;;;;4.22;3.47;;;;;;;18.35;68.84;98885.22;5012100;28;20057;-74
2021/06/21 10:44:51;;;;;;;4.43;3.95;;;;;;;18.43;67.98;98881.81;5011287;28;20045;-75
2021/06/21 10:47:39;;;;;;;5.30;3.47;;;;;;;18.65;67.74;98888.56;5011366;28;20484;-75
2021/06/21 10:50:07;;;;;;;3.40;2.90;;;;;;;18.83;67.07;98897.50;5005037;28;20046;-73
2021/06/21 10:52:36;;;;;;;3.47;3.08;;;;;;;18.97;65.99;98895.31;5019914;28;20034;-74
2021/06/21 10:55:20;;;;;;;3.72;3.33;;;;;;;19.23;66.90;98898.06;5014049;28;20046;-75
2021/06/21 10:57:46;;;;;;;3.97;2.88;;;;;;;19.36;66.31;98903.88;5012468;28;20038;-74
2021/06/21 11:00:13;;;;;;;3.22;2.67;;;;;;;19.23;65.85;98911.44;5013463;28;20034;-73
2021/06/21 11:02:39;;;;;;;3.50;2.92;;;;;;;19.09;65.68;98923.47;5006917;28;20034;-74
2021/06/21 11:05:05;;;;;;;2.88;2.50;;;;;;;18.97;66.29;98919.34;5007281;28;20096;-74
2021/06/21 11:07:32;;;;;;;2.88;2.13;;;;;;;18.98;66.36;98931.72;5005842;28;20164;-75
2021/06/21 11:09:58;;;;;;;2.95;2.28;;;;;;;18.98;65.34;98931.72;5005302;28;20198;-72
2021/06/21 11:12:24;;;;;;;2.70;2.30;;;;;;;19.02;65.25;98931.25;4973761;28;20118;-73
2021/06/21 11:15:10;;;;;;;2.35;2.15;;;;;;;19.09;66.01;98932.31;4978912;28;20133;-74
2021/06/21 11:17:42;;;;;;;4.57;3.08;;;;;;;18.94;65.84;98931.16;4984216;28;20044;-74
2021/06/21 11:20:34;;;;;;;2.90;2.20;;;;;;;18.78;66.41;98939.84;5002034;28;20076;-74
2021/06/21 11:23:02;;;;;;;3.35;2.33;;;;;;;18.75;66.57;98940.09;5016989;28;20037;-73
2021/06/21 11:25:37;;;;;;;2.80;2.17;;;;;;;18.71;66.92;98941.41;5001202;28;20109;-73
2021/06/21 11:28:03;;;;;;;2.90;2.00;;;;;;;18.81;66.78;98941.38;4987282;28;20406;-75
2021/06/21 11:30:30;;;;;;;2.47;2.15;;;;;;;18.95;66.75;98938.22;4986927;28;20049;-74